createdAt,value
2018-11-06T00:00:48.578Z,91.42
2018-11-06T00:01:48.032Z,91.74
2018-11-06T00:02:47.996Z,91.74
2018-11-06T00:03:48.011Z,92.40
2018-11-06T00:04:48.043Z,91.84
2018-11-06T00:05:47.958Z,91.74
2018-11-06T00:06:48.180Z,91.53
2018-11-06T00:07:48.003Z,91.42
2018-11-06T00:08:48.576Z,91.94
2018-11-06T00:09:47.936Z,92.35
2018-11-06T00:10:48.695Z,92.19
2018-11-06T00:11:47.981Z,92.19
2018-11-06T00:12:47.897Z,92.40
2018-11-06T00:13:48.639Z,92.86
2018-11-06T00:14:47.903Z,91.84
2018-11-06T00:15:47.868Z,92.08
2018-11-06T00:16:47.870Z,91.88
2018-11-06T00:17:47.865Z,91.47
2018-11-06T00:18:47.894Z,91.67
2018-11-06T00:19:48.667Z,92.80
2018-11-06T00:20:47.900Z,92.60
2018-11-06T00:21:47.821Z,92.80
2018-11-06T00:22:47.773Z,92.91
2018-11-06T00:23:47.748Z,92.50
2018-11-06T00:24:48.619Z,92.80
2018-11-06T00:25:47.720Z,92.60
2018-11-06T00:26:47.723Z,92.70
2018-11-06T00:27:47.700Z,92.91
2018-11-06T00:28:47.686Z,93.01
2018-11-06T00:29:47.672Z,92.50
2018-11-06T00:30:47.660Z,92.70
2018-11-06T00:31:47.676Z,92.19
2018-11-06T00:32:47.650Z,92.40
2018-11-06T00:33:47.618Z,92.80
2018-11-06T00:34:47.616Z,92.80
2018-11-06T00:35:47.606Z,93.01
2018-11-06T00:36:47.589Z,92.91
2018-11-06T00:37:58.268Z,92.91
2018-11-06T00:38:47.609Z,92.91
2018-11-06T00:40:00.104Z,92.80
2018-11-06T00:40:47.596Z,92.70
2018-11-06T00:41:47.597Z,92.80
2018-11-06T00:42:47.570Z,93.01
2018-11-06T00:43:47.514Z,92.70
2018-11-06T00:44:47.572Z,93.01
2018-11-06T00:45:47.544Z,93.63
2018-11-06T00:46:47.549Z,93.12
2018-11-06T00:47:47.528Z,93.21
2018-11-06T00:48:47.496Z,92.70
2018-11-06T00:49:47.500Z,93.01
2018-11-06T00:50:47.490Z,92.91
2018-11-06T00:51:47.426Z,93.32
2018-11-06T00:52:48.428Z,92.70
2018-11-06T00:53:47.447Z,92.80
2018-11-06T00:54:47.460Z,93.46
2018-11-06T00:55:47.412Z,93.63
2018-11-06T00:56:47.408Z,94.14
2018-11-06T00:57:47.368Z,93.87
2018-11-06T00:58:47.380Z,93.57
2018-11-06T00:59:57.277Z,93.83
2018-11-06T01:00:56.857Z,93.98
2018-11-06T01:01:47.358Z,94.04
2018-11-06T01:02:47.314Z,94.14
2018-11-06T01:03:47.307Z,94.34
2018-11-06T01:04:47.407Z,93.63
2018-11-06T01:05:47.289Z,93.67
2018-11-06T01:06:47.270Z,94.24
2018-11-06T01:07:47.299Z,93.98
2018-11-06T01:08:47.295Z,93.87
2018-11-06T01:09:47.249Z,93.93
2018-11-06T01:10:47.379Z,93.93
2018-11-06T01:11:47.186Z,93.87
2018-11-06T01:12:47.209Z,94.39
2018-11-06T01:13:47.315Z,94.04
2018-11-06T01:14:47.153Z,94.14
2018-11-06T01:15:47.161Z,93.98
2018-11-06T01:16:47.122Z,93.98
2018-11-06T01:17:47.784Z,94.29
2018-11-06T01:18:47.100Z,94.45
2018-11-06T01:19:47.098Z,94.04
2018-11-06T01:20:47.099Z,94.14
2018-11-06T01:21:47.072Z,93.63
2018-11-06T01:22:47.128Z,93.83
2018-11-06T01:23:47.047Z,93.46
2018-11-06T01:24:47.046Z,93.83
2018-11-06T01:25:47.025Z,93.87
2018-11-06T01:26:47.034Z,93.67
2018-11-06T01:27:47.009Z,94.18
2018-11-06T01:28:57.391Z,94.08
2018-11-06T01:29:47.061Z,94.29
2018-11-06T01:30:46.981Z,94.29
2018-11-06T01:31:46.996Z,94.18
2018-11-06T01:32:46.973Z,94.29
2018-11-06T01:33:47.909Z,94.14
2018-11-06T01:34:47.810Z,94.18
2018-11-06T01:35:46.946Z,94.59
2018-11-06T01:36:46.944Z,94.49
2018-11-06T01:37:46.923Z,94.39
2018-11-06T01:38:46.954Z,94.39
2018-11-06T01:39:47.879Z,94.29
2018-11-06T01:40:46.916Z,94.04
2018-11-06T01:41:46.924Z,94.45
2018-11-06T01:42:47.885Z,94.18
2018-11-06T01:43:46.834Z,94.29
2018-11-06T01:44:46.887Z,94.29
2018-11-06T01:45:46.810Z,94.18
2018-11-06T01:46:46.825Z,94.90
2018-11-06T01:47:46.866Z,94.34
2018-11-06T01:48:46.803Z,94.39
2018-11-06T01:49:46.783Z,94.14
2018-11-06T01:50:46.794Z,94.59
2018-11-06T01:51:46.811Z,94.39
2018-11-06T01:52:46.838Z,94.14
2018-11-06T01:53:46.844Z,94.55
2018-11-06T01:54:46.713Z,94.14
2018-11-06T01:55:46.688Z,94.24
2018-11-06T01:56:46.685Z,93.83
2018-11-06T01:57:46.672Z,93.93
2018-11-06T01:58:46.650Z,94.55
2018-11-06T01:59:46.651Z,94.39
2018-11-06T02:00:46.632Z,94.34
2018-11-06T02:01:46.617Z,94.76
2018-11-06T02:02:47.306Z,93.57
2018-11-06T02:03:46.589Z,94.18
2018-11-06T02:04:46.616Z,94.04
2018-11-06T02:05:46.570Z,94.39
2018-11-06T02:06:46.556Z,94.29
2018-11-06T02:07:46.574Z,94.39
2018-11-06T02:08:46.540Z,94.39
2018-11-06T02:09:46.536Z,94.80
2018-11-06T02:10:47.302Z,94.80
2018-11-06T02:11:46.519Z,94.45
2018-11-06T02:12:46.504Z,94.90
2018-11-06T02:13:46.495Z,94.70
2018-11-06T02:14:46.469Z,94.76
2018-11-06T02:15:46.473Z,94.34
2018-11-06T02:16:46.443Z,94.18
2018-11-06T02:17:46.450Z,94.80
2018-11-06T02:18:46.413Z,94.08
2018-11-06T02:19:46.406Z,94.49
2018-11-06T02:20:46.405Z,94.24
2018-11-06T02:21:46.382Z,93.98
2018-11-06T02:22:46.379Z,94.29
2018-11-06T02:23:46.385Z,94.18
2018-11-06T02:24:46.352Z,94.39
2018-11-06T02:25:46.349Z,94.39
2018-11-06T02:26:46.337Z,94.39
2018-11-06T02:27:46.315Z,94.90
2018-11-06T02:28:46.306Z,94.70
2018-11-06T02:29:46.288Z,94.49
2018-11-06T02:30:46.306Z,94.84
2018-11-06T02:31:46.268Z,94.70
2018-11-06T02:32:46.258Z,94.70
2018-11-06T02:33:46.248Z,95.31
2018-11-06T02:34:46.227Z,94.80
2018-11-06T02:35:46.255Z,94.18
2018-11-06T02:36:46.298Z,94.90
2018-11-06T02:37:46.207Z,94.29
2018-11-06T02:38:46.192Z,94.39
2018-11-06T02:39:55.673Z,94.49
2018-11-06T02:40:46.235Z,94.49
2018-11-06T02:41:46.218Z,94.29
2018-11-06T02:42:46.182Z,95.42
2018-11-06T02:43:46.188Z,94.70
2018-11-06T02:44:46.170Z,94.54
2018-11-06T02:45:46.276Z,94.74
2018-11-06T02:46:46.097Z,94.80
2018-11-06T02:47:46.391Z,94.43
2018-11-06T02:48:46.072Z,95.05
2018-11-06T02:49:46.069Z,94.29
2018-11-06T02:50:46.071Z,94.64
2018-11-06T02:51:46.046Z,94.54
2018-11-06T02:52:46.046Z,94.54
2018-11-06T02:53:46.014Z,94.80
2018-11-06T02:54:46.020Z,94.74
2018-11-06T02:55:46.035Z,94.64
2018-11-06T02:56:45.992Z,95.05
2018-11-06T02:57:45.979Z,94.12
2018-11-06T02:58:45.959Z,94.23
2018-11-06T02:59:45.969Z,94.02
2018-11-06T03:00:45.938Z,94.12
2018-11-06T03:01:46.868Z,95.36
2018-11-06T03:02:45.929Z,95.20
2018-11-06T03:03:45.903Z,94.78
2018-11-06T03:04:45.889Z,94.27
2018-11-06T03:05:45.882Z,94.68
2018-11-06T03:06:45.874Z,95.92
2018-11-06T03:07:45.903Z,96.18
2018-11-06T03:08:45.841Z,96.18
2018-11-06T03:09:45.837Z,95.87
2018-11-06T03:10:45.826Z,95.56
2018-11-06T03:11:46.429Z,95.15
2018-11-06T03:12:45.800Z,94.59
2018-11-06T03:13:45.847Z,94.54
2018-11-06T03:14:45.812Z,94.23
2018-11-06T03:15:45.774Z,94.23
2018-11-06T03:16:45.784Z,94.23
2018-11-06T03:17:45.752Z,93.92
2018-11-06T03:18:59.778Z,94.07
2018-11-06T03:19:45.793Z,94.99
2018-11-06T03:20:45.754Z,95.15
2018-11-06T03:22:06.780Z,95.97
2018-11-06T03:22:45.683Z,95.20
2018-11-06T03:23:45.690Z,94.74
2018-11-06T03:24:45.675Z,94.54
2018-11-06T03:25:45.648Z,95.09
2018-11-06T03:26:45.691Z,94.37
2018-11-06T03:27:45.638Z,94.27
2018-11-06T03:28:45.619Z,95.09
2018-11-06T03:29:45.612Z,94.68
2018-11-06T03:30:45.593Z,95.09
2018-11-06T03:31:45.595Z,95.30
2018-11-06T03:32:45.564Z,95.03
2018-11-06T03:33:46.393Z,95.30
2018-11-06T03:34:45.554Z,95.20
2018-11-06T03:35:45.550Z,96.02
2018-11-06T03:36:45.521Z,95.61
2018-11-06T03:37:45.514Z,96.12
2018-11-06T03:38:45.511Z,96.12
2018-11-06T03:39:45.497Z,96.22
2018-11-06T03:40:45.479Z,96.12
2018-11-06T03:41:45.464Z,96.12
2018-11-06T03:42:45.448Z,96.22
2018-11-06T03:43:45.443Z,95.71
2018-11-06T03:44:45.456Z,95.92
2018-11-06T03:45:45.417Z,95.71
2018-11-06T03:46:45.414Z,96.02
2018-11-06T03:47:45.398Z,96.06
2018-11-06T03:48:55.265Z,96.12
2018-11-06T03:49:45.442Z,96.02
2018-11-06T03:50:45.381Z,96.33
2018-11-06T03:51:45.975Z,96.43
2018-11-06T03:52:45.398Z,96.02
2018-11-06T03:53:45.367Z,96.22
2018-11-06T03:54:45.364Z,95.81
2018-11-06T03:55:45.390Z,96.22
2018-11-06T03:56:45.338Z,95.92
2018-11-06T03:57:45.435Z,95.71
2018-11-06T03:58:45.269Z,96.12
2018-11-06T03:59:45.272Z,95.20
2018-11-06T04:00:45.245Z,95.71
2018-11-06T04:01:45.944Z,95.71
2018-11-06T04:02:45.237Z,96.12
2018-11-06T04:03:45.216Z,96.22
2018-11-06T04:04:45.195Z,96.02
2018-11-06T04:05:45.185Z,95.87
2018-11-06T04:06:45.482Z,95.56
2018-11-06T04:07:45.191Z,95.97
2018-11-06T04:08:45.162Z,95.67
2018-11-06T04:09:45.161Z,95.87
2018-11-06T04:10:45.131Z,95.15
2018-11-06T04:11:45.122Z,94.54
2018-11-06T04:12:45.124Z,94.64
2018-11-06T04:13:45.099Z,94.84
2018-11-06T04:14:45.102Z,94.74
2018-11-06T04:15:45.072Z,94.84
2018-11-06T04:16:45.067Z,94.64
2018-11-06T04:17:45.059Z,94.95
2018-11-06T04:18:45.041Z,94.74
2018-11-06T04:19:54.612Z,94.23
2018-11-06T04:20:45.049Z,94.23
2018-11-06T04:21:45.052Z,94.33
2018-11-06T04:22:45.098Z,94.43
2018-11-06T04:23:44.998Z,93.92
2018-11-06T04:24:45.008Z,94.48
2018-11-06T04:25:45.020Z,94.27
2018-11-06T04:26:44.998Z,94.37
2018-11-06T04:27:45.091Z,94.07
2018-11-06T04:28:44.928Z,93.76
2018-11-06T04:29:44.923Z,94.17
2018-11-06T04:30:44.900Z,94.17
2018-11-06T04:31:44.904Z,94.78
2018-11-06T04:32:44.898Z,94.89
2018-11-06T04:33:44.889Z,95.20
2018-11-06T04:34:44.850Z,94.89
2018-11-06T04:35:44.847Z,94.68
2018-11-06T04:36:44.951Z,94.78
2018-11-06T04:37:44.844Z,94.83
2018-11-06T04:38:44.815Z,94.93
2018-11-06T04:39:44.803Z,95.75
2018-11-06T04:40:44.790Z,96.33
2018-11-06T04:41:44.775Z,95.92
2018-11-06T04:42:45.476Z,96.84
2018-11-06T04:43:44.767Z,96.39
2018-11-06T04:44:44.751Z,96.08
2018-11-06T04:45:44.725Z,95.25
2018-11-06T04:46:44.720Z,95.15
2018-11-06T04:47:44.710Z,95.25
2018-11-06T04:48:45.480Z,94.54
2018-11-06T04:49:44.740Z,94.64
2018-11-06T04:50:44.667Z,94.59
2018-11-06T04:51:44.659Z,94.84
2018-11-06T04:52:44.647Z,94.49
2018-11-06T04:53:44.652Z,94.49
2018-11-06T04:54:44.629Z,94.59
2018-11-06T04:55:45.497Z,94.49
2018-11-06T04:56:44.601Z,94.12
2018-11-06T04:57:44.594Z,94.33
2018-11-06T04:58:44.583Z,94.64
2018-11-06T04:59:44.569Z,94.54
2018-11-06T05:00:44.565Z,94.43
2018-11-06T05:01:44.578Z,94.54
2018-11-06T05:02:44.531Z,94.84
2018-11-06T05:03:44.523Z,94.64
2018-11-06T05:04:44.514Z,94.33
2018-11-06T05:05:44.497Z,94.64
2018-11-06T05:06:44.523Z,94.84
2018-11-06T05:07:45.497Z,94.33
2018-11-06T05:08:44.466Z,94.84
2018-11-06T05:09:44.470Z,94.43
2018-11-06T05:10:44.444Z,94.43
2018-11-06T05:11:44.466Z,94.23
2018-11-06T05:12:44.426Z,94.64
2018-11-06T05:13:44.492Z,94.64
2018-11-06T05:14:44.394Z,94.37
2018-11-06T05:15:44.387Z,94.37
2018-11-06T05:16:44.371Z,94.64
2018-11-06T05:17:44.403Z,95.20
2018-11-06T05:18:44.351Z,94.99
2018-11-06T05:19:44.388Z,94.64
2018-11-06T05:20:44.331Z,94.74
2018-11-06T05:21:44.320Z,94.99
2018-11-06T05:22:44.979Z,94.58
2018-11-06T05:23:44.309Z,94.89
2018-11-06T05:24:44.287Z,94.84
2018-11-06T05:25:44.270Z,94.78
2018-11-06T05:26:44.277Z,94.58
2018-11-06T05:27:44.247Z,94.89
2018-11-06T05:28:44.250Z,94.27
2018-11-06T05:29:44.245Z,94.78
2018-11-06T05:30:44.214Z,95.09
2018-11-06T05:31:44.205Z,94.68
2018-11-06T05:32:44.268Z,94.89
2018-11-06T05:33:44.188Z,94.37
2018-11-06T05:34:44.177Z,94.68
2018-11-06T05:35:44.162Z,94.37
2018-11-06T05:36:44.239Z,95.20
2018-11-06T05:37:44.135Z,94.68
2018-11-06T05:38:44.174Z,94.99
2018-11-06T05:39:44.982Z,94.73
2018-11-06T05:40:44.107Z,95.20
2018-11-06T05:41:44.096Z,96.02
2018-11-06T05:42:44.073Z,95.20
2018-11-06T05:43:44.068Z,95.92
2018-11-06T05:44:44.106Z,95.09
2018-11-06T05:45:44.116Z,95.09
2018-11-06T05:46:44.038Z,95.30
2018-11-06T05:47:44.023Z,95.09
2018-11-06T05:48:44.003Z,95.71
2018-11-06T05:49:45.015Z,95.71
2018-11-06T05:50:44.000Z,95.71
2018-11-06T05:51:44.040Z,95.81
2018-11-06T05:52:43.983Z,95.81
2018-11-06T05:53:43.952Z,95.71
2018-11-06T05:54:43.949Z,95.81
2018-11-06T05:55:43.946Z,95.92
2018-11-06T05:56:43.918Z,95.09
2018-11-06T05:57:43.908Z,95.20
2018-11-06T05:58:43.913Z,95.15
2018-11-06T05:59:43.891Z,94.68
2018-11-06T06:00:43.891Z,94.48
2018-11-06T06:01:43.868Z,94.89
2018-11-06T06:02:43.848Z,95.20
2018-11-06T06:03:43.843Z,94.68
2018-11-06T06:04:43.841Z,94.37
2018-11-06T06:05:43.818Z,94.58
2018-11-06T06:06:43.819Z,94.78
2018-11-06T06:07:43.789Z,94.68
2018-11-06T06:08:43.781Z,94.68
2018-11-06T06:09:43.770Z,94.89
2018-11-06T06:10:43.789Z,94.37
2018-11-06T06:11:43.769Z,94.54
2018-11-06T06:12:43.736Z,95.05
2018-11-06T06:13:43.728Z,95.05
2018-11-06T06:14:44.488Z,94.12
2018-11-06T06:15:43.702Z,94.33
2018-11-06T06:16:43.715Z,95.15
2018-11-06T06:17:43.706Z,95.05
2018-11-06T06:18:43.668Z,95.05
2018-11-06T06:19:44.483Z,94.43
2018-11-06T06:20:43.637Z,95.46
2018-11-06T06:21:43.740Z,94.33
2018-11-06T06:22:43.642Z,94.95
2018-11-06T06:23:43.621Z,95.15
2018-11-06T06:24:43.596Z,94.84
2018-11-06T06:25:44.484Z,94.23
2018-11-06T06:26:54.297Z,94.43
2018-11-06T06:27:45.605Z,94.43
2018-11-06T06:28:43.601Z,94.23
2018-11-06T06:29:43.692Z,94.43
2018-11-06T06:30:43.543Z,94.59
2018-11-06T06:31:43.522Z,93.98
2018-11-06T06:32:43.524Z,94.18
2018-11-06T06:33:43.514Z,93.98
2018-11-06T06:34:43.576Z,94.08
2018-11-06T06:35:43.473Z,94.08
2018-11-06T06:36:43.477Z,93.98
2018-11-06T06:37:43.471Z,94.18
2018-11-06T06:38:43.559Z,94.29
2018-11-06T06:39:43.433Z,93.26
2018-11-06T06:40:43.449Z,94.33
2018-11-06T06:41:43.399Z,94.23
2018-11-06T06:42:44.025Z,94.12
2018-11-06T06:43:43.524Z,94.02
2018-11-06T06:44:43.363Z,94.18
2018-11-06T06:45:43.367Z,93.71
2018-11-06T06:46:43.351Z,93.92
2018-11-06T06:47:43.330Z,93.92
2018-11-06T06:48:43.335Z,93.51
2018-11-06T06:49:43.336Z,93.71
2018-11-06T06:50:43.300Z,93.71
2018-11-06T06:51:43.292Z,93.71
2018-11-06T06:52:43.284Z,93.76
2018-11-06T06:53:43.264Z,93.71
2018-11-06T06:54:44.158Z,93.65
2018-11-06T06:55:43.253Z,94.17
2018-11-06T06:56:43.242Z,94.17
2018-11-06T06:57:43.221Z,93.76
2018-11-06T06:58:43.241Z,94.78
2018-11-06T06:59:43.191Z,94.58
2018-11-06T07:00:44.015Z,94.64
2018-11-06T07:01:43.197Z,94.78
2018-11-06T07:02:43.186Z,94.95
2018-11-06T07:03:43.149Z,95.56
2018-11-06T07:04:43.139Z,96.18
2018-11-06T07:05:43.146Z,95.97
2018-11-06T07:06:43.112Z,95.56
2018-11-06T07:07:43.137Z,95.15
2018-11-06T07:08:43.088Z,95.15
2018-11-06T07:09:43.077Z,94.95
2018-11-06T07:10:43.077Z,94.58
2018-11-06T07:11:43.066Z,94.95
2018-11-06T07:12:43.070Z,94.64
2018-11-06T07:13:43.072Z,94.84
2018-11-06T07:14:43.025Z,94.84
2018-11-06T07:15:44.038Z,95.05
2018-11-06T07:16:43.003Z,94.18
2018-11-06T07:17:43.527Z,94.18
2018-11-06T07:18:43.071Z,94.18
2018-11-06T07:19:42.967Z,93.98
2018-11-06T07:20:42.962Z,94.24
2018-11-06T07:21:42.959Z,93.83
2018-11-06T07:22:43.519Z,93.52
2018-11-06T07:23:42.926Z,93.01
2018-11-06T07:24:42.924Z,92.35
2018-11-06T07:25:42.932Z,92.55
2018-11-06T07:26:42.885Z,92.55
2018-11-06T07:27:42.871Z,92.66
2018-11-06T07:28:42.910Z,92.80
2018-11-06T07:29:42.953Z,92.66
2018-11-06T07:30:42.858Z,92.46
2018-11-06T07:31:42.837Z,92.66
2018-11-06T07:32:42.820Z,92.04
2018-11-06T07:33:42.803Z,92.10
2018-11-06T07:34:43.589Z,92.10
2018-11-06T07:35:45.756Z,92.00
2018-11-06T07:36:42.777Z,91.59
2018-11-06T07:37:42.758Z,91.59
2018-11-06T07:38:42.748Z,91.69
2018-11-06T07:39:42.742Z,91.80
2018-11-06T07:40:43.527Z,91.69
2018-11-06T07:41:42.740Z,91.38
2018-11-06T07:42:42.722Z,91.59
2018-11-06T07:43:42.695Z,91.49
2018-11-06T07:44:42.688Z,91.90
2018-11-06T07:45:42.670Z,91.80
2018-11-06T07:46:42.662Z,91.28
2018-11-06T07:47:42.656Z,91.55
2018-11-06T07:48:42.633Z,91.18
2018-11-06T07:49:42.647Z,90.73
2018-11-06T07:50:42.603Z,90.62
2018-11-06T07:51:42.645Z,91.03
2018-11-06T07:52:42.597Z,90.83
2018-11-06T07:53:42.576Z,90.62
2018-11-06T07:54:43.522Z,90.93
2018-11-06T07:55:42.660Z,90.62
2018-11-06T07:56:42.572Z,90.83
2018-11-06T07:57:42.528Z,90.11
2018-11-06T07:58:42.533Z,90.79
2018-11-06T07:59:42.508Z,90.83
2018-11-06T08:00:42.514Z,90.28
2018-11-06T08:01:42.482Z,90.17
2018-11-06T08:02:42.483Z,89.66
2018-11-06T08:03:42.466Z,89.87
2018-11-06T08:04:42.454Z,89.36
2018-11-06T08:05:42.440Z,88.84
2018-11-06T08:06:42.455Z,89.45
2018-11-06T08:07:42.448Z,89.04
2018-11-06T08:08:42.417Z,88.90
2018-11-06T08:09:42.438Z,89.00
2018-11-06T08:10:42.391Z,89.21
2018-11-06T08:11:42.374Z,89.31
2018-11-06T08:12:42.424Z,89.31
2018-11-06T08:13:42.548Z,89.11
2018-11-06T08:14:42.427Z,89.31
2018-11-06T08:15:42.329Z,89.11
2018-11-06T08:16:42.312Z,89.31
2018-11-06T08:17:42.295Z,88.49
2018-11-06T08:18:42.311Z,88.04
2018-11-06T08:19:42.295Z,87.94
2018-11-06T08:20:42.291Z,88.14
2018-11-06T08:21:58.600Z,87.37
2018-11-06T08:22:42.239Z,87.43
2018-11-06T08:23:55.289Z,87.43
2018-11-06T08:24:42.290Z,87.84
2018-11-06T08:25:42.268Z,87.53
2018-11-06T08:26:42.372Z,87.73
2018-11-06T08:27:42.230Z,87.43
2018-11-06T08:28:42.293Z,87.73
2018-11-06T08:29:42.196Z,87.94
2018-11-06T08:30:53.572Z,88.14
2018-11-06T08:31:42.425Z,87.53
2018-11-06T08:32:42.680Z,88.35
2018-11-06T08:33:42.170Z,87.84
2018-11-06T08:34:42.194Z,88.45
2018-11-06T08:35:42.094Z,88.35
2018-11-06T08:36:42.740Z,89.21
2018-11-06T08:37:42.068Z,88.96
2018-11-06T08:38:56.448Z,89.11
2018-11-06T08:39:42.209Z,89.42
2018-11-06T08:40:42.124Z,89.21
2018-11-06T08:41:42.056Z,89.21
2018-11-06T08:42:42.149Z,88.59
2018-11-06T08:43:42.041Z,88.35
2018-11-06T08:44:42.135Z,88.08
2018-11-06T08:45:41.981Z,87.98
2018-11-06T08:46:41.993Z,89.11
2018-11-06T08:47:41.953Z,89.00
2018-11-06T08:48:41.935Z,89.11
2018-11-06T08:49:41.943Z,89.00
2018-11-06T08:50:41.920Z,89.42
2018-11-06T08:51:41.931Z,89.72
2018-11-06T08:52:41.894Z,89.92
2018-11-06T08:53:41.880Z,89.21
2018-11-06T08:54:41.984Z,89.42
2018-11-06T08:55:41.866Z,90.13
2018-11-06T08:56:41.845Z,90.13
2018-11-06T08:57:52.825Z,89.45
2018-11-06T08:58:41.899Z,90.07
2018-11-06T08:59:41.905Z,89.83
2018-11-06T09:00:41.926Z,90.07
2018-11-06T09:01:41.819Z,90.07
2018-11-06T09:02:52.151Z,90.79
2018-11-06T09:03:42.803Z,89.87
2018-11-06T09:04:41.810Z,89.97
2018-11-06T09:05:41.878Z,90.28
2018-11-06T09:06:42.831Z,89.92
2018-11-06T09:07:41.719Z,90.75
2018-11-06T09:08:41.831Z,90.03
2018-11-06T09:09:41.712Z,89.62
2018-11-06T09:10:41.683Z,89.21
2018-11-06T09:11:41.689Z,89.83
2018-11-06T09:12:41.668Z,90.54
2018-11-06T09:13:41.653Z,90.23
2018-11-06T09:14:41.688Z,89.62
2018-11-06T09:15:41.637Z,89.42
2018-11-06T09:16:41.615Z,89.31
2018-11-06T09:17:41.602Z,89.92
2018-11-06T09:18:41.609Z,89.31
2018-11-06T09:19:42.244Z,89.42
2018-11-06T09:20:41.572Z,89.11
2018-11-06T09:21:48.250Z,89.42
2018-11-06T09:22:41.559Z,89.83
2018-11-06T09:23:41.539Z,89.27
2018-11-06T09:24:41.540Z,89.21
2018-11-06T09:25:41.587Z,89.31
2018-11-06T09:26:41.513Z,89.27
2018-11-06T09:27:41.486Z,89.17
2018-11-06T09:28:41.480Z,89.62
2018-11-06T09:29:41.496Z,89.42
2018-11-06T09:30:41.743Z,89.27
2018-11-06T09:31:41.462Z,89.06
2018-11-06T09:32:41.439Z,87.43
2018-11-06T09:33:41.422Z,88.08
2018-11-06T09:34:41.416Z,88.39
2018-11-06T09:35:41.417Z,89.47
2018-11-06T09:36:41.394Z,89.17
2018-11-06T09:37:41.392Z,89.17
2018-11-06T09:38:41.372Z,89.37
2018-11-06T09:39:41.358Z,89.37
2018-11-06T09:40:41.362Z,88.62
2018-11-06T09:41:41.329Z,88.45
2018-11-06T09:42:41.323Z,88.62
2018-11-06T09:43:41.323Z,88.20
2018-11-06T09:44:41.293Z,87.90
2018-11-06T09:45:41.329Z,88.10
2018-11-06T09:46:41.272Z,88.20
2018-11-06T09:47:41.261Z,88.20
2018-11-06T09:48:41.253Z,88.51
2018-11-06T09:49:41.268Z,87.38
2018-11-06T09:50:41.229Z,87.90
2018-11-06T09:51:48.800Z,88.20
2018-11-06T09:52:41.207Z,88.00
2018-11-06T09:53:41.217Z,88.00
2018-11-06T09:54:41.222Z,88.62
2018-11-06T09:55:41.169Z,89.12
2018-11-06T09:56:41.206Z,89.33
2018-11-06T09:57:41.729Z,87.70
2018-11-06T09:58:41.144Z,87.38
2018-11-06T09:59:41.131Z,87.08
2018-11-06T10:00:41.141Z,87.90
2018-11-06T10:01:41.116Z,87.70
2018-11-06T10:02:41.167Z,87.90
2018-11-06T10:03:41.084Z,87.29
2018-11-06T10:04:41.749Z,87.18
2018-11-06T10:05:41.226Z,87.38
2018-11-06T10:07:52.369Z,87.14
2018-11-06T10:08:52.173Z,86.43
2018-11-06T10:09:52.191Z,87.65
2018-11-06T10:10:52.279Z,86.53
2018-11-06T10:11:52.152Z,87.24
2018-11-06T10:12:52.137Z,86.94
2018-11-06T10:13:52.144Z,86.43
2018-11-06T10:14:52.119Z,85.71
2018-11-06T10:15:52.084Z,85.91
2018-11-06T10:16:52.075Z,86.32
2018-11-06T10:17:52.075Z,85.88
2018-11-06T10:18:52.082Z,86.29
2018-11-06T10:19:52.043Z,85.67
2018-11-06T10:20:52.035Z,86.14
2018-11-06T10:23:03.359Z,85.73
2018-11-06T10:24:04.020Z,85.02
2018-11-06T10:25:03.181Z,85.02
2018-11-06T10:26:03.143Z,84.65
2018-11-06T10:27:03.225Z,84.81
2018-11-06T10:28:03.068Z,86.04
2018-11-06T10:29:03.048Z,86.24
2018-11-06T10:30:03.064Z,85.02
2018-11-06T10:31:03.026Z,85.02
2018-11-06T10:32:03.019Z,86.10
2018-11-06T10:33:03.033Z,85.08
2018-11-06T10:34:02.999Z,83.95
2018-11-06T10:35:03.007Z,84.16
2018-11-06T10:36:02.975Z,84.06
2018-11-06T10:37:02.961Z,84.67
2018-11-06T10:38:02.986Z,85.08
2018-11-06T10:39:02.940Z,84.74
2018-11-06T10:40:03.471Z,84.42
2018-11-06T10:41:02.938Z,84.94
2018-11-06T10:42:02.907Z,83.71
2018-11-06T10:43:02.897Z,84.12
2018-11-06T10:44:02.880Z,84.74
2018-11-06T10:45:02.884Z,84.63
2018-11-06T10:46:02.878Z,84.59
2018-11-06T10:47:02.844Z,82.96
2018-11-06T10:48:02.853Z,83.98
2018-11-06T10:49:02.834Z,83.87
2018-11-06T10:50:02.819Z,83.43
2018-11-06T10:51:02.845Z,81.90
2018-11-06T10:52:02.797Z,80.91
2018-11-06T10:53:02.806Z,81.09
2018-11-06T10:54:02.776Z,82.86
2018-11-06T10:55:02.765Z,83.84
2018-11-06T10:56:02.752Z,82.82
2018-11-06T10:57:03.005Z,83.23
2018-11-06T10:58:03.528Z,80.16
2018-11-06T10:59:02.723Z,80.88
2018-11-06T11:00:02.711Z,81.02
2018-11-06T11:01:02.693Z,81.90
2018-11-06T11:02:02.689Z,82.00
2018-11-06T11:03:02.754Z,81.18
2018-11-06T11:04:02.685Z,81.80
2018-11-06T11:05:02.660Z,81.80
2018-11-06T11:06:02.637Z,84.00
2018-11-06T11:07:02.636Z,80.74
2018-11-06T11:08:02.638Z,80.13
2018-11-06T11:09:02.629Z,79.62
2018-11-06T11:10:02.594Z,80.23
2018-11-06T11:11:02.592Z,81.11
2018-11-06T11:12:02.568Z,81.11
2018-11-06T11:13:02.578Z,80.60
2018-11-06T11:14:02.548Z,82.13
2018-11-06T11:15:02.567Z,80.70
2018-11-06T11:16:02.533Z,79.38
2018-11-06T11:17:02.518Z,80.56
2018-11-06T11:18:02.506Z,79.54
2018-11-06T11:19:02.519Z,80.05
2018-11-06T11:20:02.577Z,79.27
2018-11-06T11:21:02.494Z,79.52
2018-11-06T11:22:02.456Z,79.79
2018-11-06T11:23:02.448Z,79.32
2018-11-06T11:24:02.435Z,81.15
2018-11-06T11:25:02.448Z,81.01
2018-11-06T11:26:02.423Z,79.68
2018-11-06T11:27:02.413Z,80.02
2018-11-06T11:28:02.387Z,81.04
2018-11-06T11:29:02.378Z,80.80
2018-11-06T11:30:02.383Z,80.80
2018-11-06T11:31:02.350Z,82.54
2018-11-06T11:32:02.982Z,80.97
2018-11-06T11:33:02.351Z,79.24
2018-11-06T11:34:02.321Z,78.53
2018-11-06T11:35:02.301Z,79.91
2018-11-06T11:36:02.993Z,79.71
2018-11-06T11:37:02.288Z,79.30
2018-11-06T11:38:02.272Z,77.47
2018-11-06T11:39:02.281Z,77.20
2018-11-06T11:40:02.252Z,77.71
2018-11-06T11:41:02.254Z,77.55
2018-11-06T11:42:02.226Z,79.17
2018-11-06T11:43:02.216Z,79.27
2018-11-06T11:44:02.222Z,79.52
2018-11-06T11:45:02.220Z,79.86
2018-11-06T11:46:02.192Z,80.88
2018-11-06T11:47:02.167Z,80.13
2018-11-06T11:48:02.159Z,81.04
2018-11-06T11:49:02.982Z,79.89
2018-11-06T11:50:02.150Z,80.09
2018-11-06T11:51:02.130Z,80.09
2018-11-06T11:53:16.443Z,77.85
2018-11-06T11:54:16.427Z,79.21
2018-11-06T11:55:16.374Z,79.58
2018-11-06T11:56:16.353Z,79.99
2018-11-06T11:57:16.384Z,79.99
2018-11-06T11:58:16.293Z,79.48
2018-11-06T11:59:17.136Z,79.82
2018-11-06T12:00:16.433Z,80.23
2018-11-06T12:01:16.281Z,79.32
2018-11-06T12:02:16.410Z,79.72
2018-11-06T12:03:16.313Z,80.54
2018-11-06T12:04:16.281Z,79.82
2018-11-06T12:05:16.381Z,80.43
2018-11-06T12:06:16.216Z,79.52
2018-11-06T12:07:16.209Z,79.93
2018-11-06T12:08:16.208Z,80.80
2018-11-06T12:09:16.176Z,79.68
2018-11-06T12:10:16.159Z,79.99
2018-11-06T12:11:16.172Z,79.68
2018-11-06T12:12:16.133Z,79.54
2018-11-06T12:13:16.132Z,80.26
2018-11-06T12:14:16.109Z,78.83
2018-11-06T12:15:16.103Z,78.12
2018-11-06T12:16:16.154Z,77.64
2018-11-06T12:17:16.138Z,78.56
2018-11-06T12:18:16.123Z,79.17
2018-11-06T12:19:16.052Z,79.48
2018-11-06T12:20:16.041Z,78.60
2018-11-06T12:21:16.032Z,78.70
2018-11-06T12:22:16.090Z,80.33
2018-11-06T12:23:16.015Z,78.91
2018-11-06T12:24:16.138Z,79.93
2018-11-06T12:25:16.233Z,79.58
2018-11-06T12:26:15.983Z,78.87
2018-11-06T12:27:15.961Z,77.64
2018-11-06T12:28:16.064Z,79.72
2018-11-06T12:29:15.941Z,78.60
2018-11-06T12:30:15.930Z,79.55
2018-11-06T12:31:15.952Z,80.27
2018-11-06T12:32:15.911Z,80.37
2018-11-06T12:33:15.930Z,80.37
2018-11-06T12:34:15.889Z,81.18
2018-11-06T12:35:15.895Z,80.54
2018-11-06T12:36:15.914Z,80.50
2018-11-06T12:37:15.854Z,79.82
2018-11-06T12:38:15.842Z,78.26
2018-11-06T12:39:15.853Z,78.26
2018-11-06T12:40:15.834Z,79.79
2018-11-06T12:41:16.805Z,78.26
2018-11-06T12:42:15.794Z,79.41
2018-11-06T12:43:15.797Z,80.54
2018-11-06T12:44:15.791Z,80.02
2018-11-06T12:45:15.768Z,79.41
2018-11-06T12:46:15.759Z,79.32
2018-11-06T12:47:16.560Z,80.13
2018-11-06T12:48:15.726Z,80.54
2018-11-06T12:49:15.707Z,78.91
2018-11-06T12:50:15.778Z,78.91
2018-11-06T12:51:15.691Z,80.02
2018-11-06T12:52:15.690Z,79.96
2018-11-06T12:53:15.668Z,80.88
2018-11-06T12:54:16.569Z,80.37
2018-11-06T12:55:15.656Z,80.88
2018-11-06T12:56:15.688Z,80.65